15°C Temp
12°C Dewpoint
82% Humidity
Temperature
16 KM/H
10 MPH
9 KTS
310°
North West

Wind Speed
Clear
Conditions
Pressure 1018.92 (hPa) - 30.09 (in)
Visibility 6.2 (mi) - 10.0 (km)

Current Conditions
EGHH
Location 7.4(mi)
Metar :EGHH 242050Z 31009KT 280V340 CAVOK 15/12 Q1019
Fri 24th May 21:50 pm

Airport
  Metar Aviation API Data Provided by https://www.checkwx.com/ PHP scripts by weather34.com ©2019